Time;durP1;ratioP1;P1;durP2;ratioP2;P2;SDS_P1;SDS_P2;PMS_P1;PMS_P2;Temp;Humidity;BMP_temperature;BMP_pressure;BME280_temperature;BME280_humidity;BME280_pressure;Samples;Min_cycle;Max_cycle;Signal;HPM_P1;HPM_P2
2022/06/10 00:01:55;;;;;;;4.30;3.17;;;14.40;91.20;;;;;;945566;150;27427;-76
2022/06/10 00:04:22;;;;;;;3.80;3.50;;;14.30;91.50;;;;;;946174;148;27305;-75
2022/06/10 00:06:48;;;;;;;3.80;3.40;;;14.30;91.70;;;;;;945741;151;27407;-76
2022/06/10 00:09:15;;;;;;;4.23;3.83;;;14.30;91.80;;;;;;945740;148;27407;-76
2022/06/10 00:11:41;;;;;;;3.43;3.07;;;14.30;91.90;;;;;;945859;151;27326;-75
2022/06/10 00:14:08;;;;;;;4.40;3.10;;;14.30;92.00;;;;;;945914;149;27330;-76
2022/06/10 00:16:34;;;;;;;3.17;2.97;;;14.30;92.20;;;;;;963488;145;28643;-76
2022/06/10 00:19:01;;;;;;;3.50;3.20;;;14.30;92.20;;;;;;953896;147;27249;-76
2022/06/10 00:21:28;;;;;;;4.63;3.30;;;14.30;92.30;;;;;;953973;147;27309;-76
2022/06/10 00:23:54;;;;;;;3.40;3.20;;;14.30;92.30;;;;;;954628;148;27381;-76
2022/06/10 00:26:21;;;;;;;3.23;3.03;;;14.20;92.30;;;;;;954227;147;27442;-76
2022/06/10 00:28:48;;;;;;;3.73;3.43;;;14.20;92.70;;;;;;954409;148;27352;-75
2022/06/10 00:31:14;;;;;;;3.60;3.30;;;14.20;92.40;;;;;;954095;147;27298;-76
2022/06/10 00:33:41;;;;;;;5.07;3.50;;;14.20;92.60;;;;;;953305;147;27328;-75
2022/06/10 00:36:07;;;;;;;3.73;3.43;;;14.10;92.70;;;;;;954288;147;27418;-76
2022/06/10 00:38:34;;;;;;;3.83;3.57;;;14.10;92.80;;;;;;954384;148;27272;-75
2022/06/10 00:41:00;;;;;;;4.27;3.87;;;14.10;92.90;;;;;;954478;147;27341;-76
2022/06/10 00:43:27;;;;;;;5.07;4.07;;;14.10;93.00;;;;;;954082;150;27848;-75
2022/06/10 00:45:53;;;;;;;4.30;3.90;;;14.00;93.10;;;;;;954283;147;27366;-75
2022/06/10 00:48:20;;;;;;;4.30;4.00;;;14.00;93.10;;;;;;954433;148;27337;-76
2022/06/10 00:50:47;;;;;;;3.87;3.57;;;14.00;93.20;;;;;;952213;149;27365;-76
2022/06/10 00:53:13;;;;;;;4.67;4.27;;;14.00;93.30;;;;;;954172;147;27416;-76
2022/06/10 00:55:40;;;;;;;4.80;3.60;;;14.00;93.40;;;;;;954587;146;28559;-76
2022/06/10 00:58:06;;;;;;;5.50;4.13;;;14.00;93.50;;;;;;953858;150;27473;-76
2022/06/10 01:00:36;;;;;;;3.50;3.20;;;13.90;93.40;;;;;;937455;150;27313;-76
2022/06/10 01:03:00;;;;;;;3.70;3.40;;;13.90;93.40;;;;;;953794;147;27315;-76
2022/06/10 01:05:26;;;;;;;3.77;3.47;;;13.90;93.50;;;;;;954094;147;27349;-75
2022/06/10 01:07:53;;;;;;;3.53;3.07;;;13.80;93.40;;;;;;953773;147;27469;-75
2022/06/10 01:10:19;;;;;;;4.10;3.80;;;13.80;93.40;;;;;;953076;147;27294;-76
2022/06/10 01:13:07;;;;;;;3.63;3.33;;;13.80;93.50;;;;;;954181;147;27341;-76
2022/06/10 01:15:42;;;;;;;4.17;3.77;;;13.70;93.50;;;;;;954621;147;27421;-76
2022/06/10 01:18:27;;;;;;;4.43;4.03;;;13.70;93.50;;;;;;943192;149;27333;-76
2022/06/10 01:21:02;;;;;;;4.50;4.10;;;13.70;93.60;;;;;;928802;151;27473;-75
2022/06/10 01:23:32;;;;;;;4.30;3.90;;;13.60;93.60;;;;;;949479;148;27460;-75
2022/06/10 01:26:02;;;;;;;4.37;3.97;;;13.60;93.80;;;;;;942589;149;27347;-75
2022/06/10 01:28:47;;;;;;;3.80;3.50;;;13.50;94.00;;;;;;926682;152;27781;-76
2022/06/10 01:31:16;;;;;;;5.00;3.80;;;13.50;94.10;;;;;;944677;149;27328;-76
2022/06/10 01:33:58;;;;;;;4.87;4.13;;;13.50;94.20;;;;;;959027;149;27797;-75
2022/06/10 01:36:42;;;;;;;4.57;4.17;;;13.50;94.40;;;;;;958660;146;27334;-76
2022/06/10 01:39:09;;;;;;;5.80;3.80;;;13.50;94.50;;;;;;959265;146;27297;-76
2022/06/10 01:41:38;;;;;;;4.23;3.80;;;13.40;94.40;;;;;;958351;146;27304;-75
2022/06/10 01:44:20;;;;;;;3.63;3.40;;;13.40;94.60;;;;;;959068;149;27426;-75
2022/06/10 01:47:10;;;;;;;4.00;3.70;;;13.40;94.60;;;;;;959309;146;27321;-76
2022/06/10 01:49:48;;;;;;;4.13;3.73;;;13.40;94.50;;;;;;938357;146;27352;-76
2022/06/10 01:52:33;;;;;;;4.20;3.90;;;13.40;94.50;;;;;;959376;149;26927;-76
2022/06/10 01:55:06;;;;;;;3.73;3.40;;;13.30;94.60;;;;;;960122;146;27396;-76
2022/06/10 01:57:42;;;;;;;4.20;3.60;;;13.30;94.50;;;;;;958601;149;27387;-76
2022/06/10 02:00:08;;;;;;;4.23;3.83;;;13.30;94.70;;;;;;959246;146;27422;-76
2022/06/10 02:02:35;;;;;;;4.33;3.93;;;13.30;94.80;;;;;;960012;147;27326;-75
2022/06/10 02:05:01;;;;;;;4.17;3.87;;;13.20;94.90;;;;;;958703;146;27307;-75
2022/06/10 02:07:28;;;;;;;4.10;3.77;;;13.20;95.10;;;;;;959032;147;27314;-75
2022/06/10 02:09:55;;;;;;;3.57;3.33;;;13.20;95.10;;;;;;959841;146;27293;-76
2022/06/10 02:12:24;;;;;;;3.73;3.43;;;13.20;95.10;;;;;;959442;146;27334;-76
2022/06/10 02:14:53;;;;;;;6.33;3.90;;;13.20;95.10;;;;;;959733;149;27458;-76
2022/06/10 02:17:20;;;;;;;3.87;3.40;;;13.20;95.00;;;;;;958297;146;28013;-75
2022/06/10 02:19:46;;;;;;;4.63;4.17;;;13.20;95.10;;;;;;960043;146;27324;-75
2022/06/10 02:22:13;;;;;;;4.33;4.03;;;13.10;95.10;;;;;;959546;146;27434;-75
2022/06/10 02:24:46;;;;;;;4.83;3.80;;;13.10;95.20;;;;;;958249;146;27312;-75
2022/06/10 02:27:18;;;;;;;3.97;3.67;;;13.10;95.20;;;;;;959060;146;27346;-75
2022/06/10 02:29:47;;;;;;;5.47;4.20;;;13.00;95.20;;;;;;959583;149;27313;-75
2022/06/10 02:32:13;;;;;;;4.73;4.30;;;13.00;95.30;;;;;;958890;146;27370;-75
2022/06/10 02:34:40;;;;;;;4.13;3.70;;;13.00;95.40;;;;;;959976;149;27346;-75
2022/06/10 02:37:22;;;;;;;4.27;3.87;;;13.00;95.50;;;;;;959420;146;27441;-75
2022/06/10 02:39:54;;;;;;;4.03;3.73;;;12.90;95.50;;;;;;958985;146;27310;-75
2022/06/10 02:42:33;;;;;;;4.87;4.47;;;12.90;95.50;;;;;;957416;149;27391;-75
2022/06/10 02:45:27;;;;;;;4.00;3.70;;;12.90;95.60;;;;;;955735;146;27326;-75
2022/06/10 02:48:02;;;;;;;4.40;3.67;;;12.90;95.70;;;;;;959999;149;27459;-75
2022/06/10 02:50:29;;;;;;;4.23;3.77;;;12.80;95.60;;;;;;959568;149;27296;-75
2022/06/10 02:52:56;;;;;;;4.53;4.13;;;12.80;95.80;;;;;;959671;147;27407;-75
2022/06/10 02:55:22;;;;;;;4.07;3.77;;;12.80;95.90;;;;;;959873;146;27350;-75
2022/06/10 03:03:49;;;;;;;3.70;3.40;;;12.80;95.90;;;;;;949841;147;27419;-76
2022/06/10 03:06:18;;;;;;;4.20;3.77;;;12.70;95.90;;;;;;959596;146;27443;-76
2022/06/10 03:08:45;;;;;;;3.80;3.50;;;12.70;95.90;;;;;;953033;146;27385;-75
2022/06/10 03:11:23;;;;;;;4.90;3.60;;;12.70;96.10;;;;;;959609;146;27394;-76
2022/06/10 03:14:27;;;;;;;4.30;3.63;;;12.70;96.20;;;;;;960213;149;27246;-76
2022/06/10 03:17:02;;;;;;;4.40;3.63;;;12.70;96.20;;;;;;960264;146;27422;-76
2022/06/10 03:19:35;;;;;;;4.90;3.63;;;12.60;96.00;;;;;;958002;146;27309;-76
2022/06/10 03:22:10;;;;;;;4.27;3.87;;;12.60;96.30;;;;;;959871;146;27423;-76
2022/06/10 03:24:58;;;;;;;5.70;4.23;;;12.60;96.50;;;;;;960028;149;27430;-76
2022/06/10 03:27:31;;;;;;;4.17;3.83;;;12.60;96.60;;;;;;959286;146;27296;-75
2022/06/10 03:30:06;;;;;;;4.80;4.20;;;12.60;96.60;;;;;;958402;146;27629;-76
2022/06/10 03:33:09;;;;;;;4.87;4.40;;;12.60;96.70;;;;;;959594;147;27377;-75
2022/06/10 03:35:38;;;;;;;4.40;4.07;;;12.60;96.90;;;;;;959388;146;27351;-76
2022/06/10 03:38:05;;;;;;;4.50;4.20;;;12.60;96.80;;;;;;959303;149;27430;-76
2022/06/10 03:40:31;;;;;;;4.77;4.37;;;12.60;97.00;;;;;;958986;146;27236;-75
2022/06/10 03:42:58;;;;;;;4.83;4.30;;;12.60;97.00;;;;;;959563;146;27294;-75
2022/06/10 03:45:28;;;;;;;5.20;4.27;;;12.60;97.40;;;;;;960015;146;27346;-75
2022/06/10 03:47:54;;;;;;;4.73;4.33;;;12.70;97.50;;;;;;958875;147;27823;-75
2022/06/10 03:50:27;;;;;;;4.30;4.00;;;12.70;97.50;;;;;;960381;146;27341;-75
2022/06/10 03:52:53;;;;;;;4.23;3.70;;;12.70;97.60;;;;;;960052;149;27342;-77
2022/06/10 03:55:20;;;;;;;5.97;4.27;;;12.70;97.70;;;;;;960212;146;27302;-76
2022/06/10 03:57:46;;;;;;;4.47;4.17;;;12.80;97.70;;;;;;960256;149;27330;-76
2022/06/10 04:00:13;;;;;;;4.87;4.43;;;12.80;97.80;;;;;;960159;146;27234;-76
2022/06/10 04:02:40;;;;;;;4.97;4.60;;;12.90;97.80;;;;;;959494;147;27695;-76
2022/06/10 04:05:08;;;;;;;5.17;4.67;;;12.90;97.90;;;;;;959573;146;28292;-76
2022/06/10 04:07:33;;;;;;;4.47;4.17;;;12.90;98.00;;;;;;959926;146;27263;-76
2022/06/10 04:09:59;;;;;;;5.07;4.60;;;13.00;98.00;;;;;;960234;146;27432;-77
2022/06/10 04:12:26;;;;;;;5.27;4.83;;;13.10;98.10;;;;;;959350;147;27363;-77
2022/06/10 04:14:53;;;;;;;5.13;4.73;;;13.10;98.20;;;;;;959872;146;27373;-76
2022/06/10 04:17:19;;;;;;;5.40;4.60;;;13.20;98.40;;;;;;959771;146;27338;-76
2022/06/10 04:19:46;;;;;;;5.50;5.00;;;13.20;98.50;;;;;;959788;146;27322;-76
2022/06/10 04:22:12;;;;;;;4.50;4.20;;;13.30;98.80;;;;;;959923;149;27326;-77
2022/06/10 04:24:39;;;;;;;5.00;4.60;;;13.40;98.70;;;;;;959465;146;27392;-77
2022/06/10 04:27:06;;;;;;;5.00;4.50;;;13.40;98.80;;;;;;960074;149;27298;-77
2022/06/10 04:29:32;;;;;;;5.00;4.57;;;13.50;98.90;;;;;;959188;146;27342;-76
2022/06/10 04:31:59;;;;;;;5.77;5.17;;;13.60;99.10;;;;;;960280;149;27303;-76
2022/06/10 04:34:25;;;;;;;9.20;5.33;;;13.70;99.20;;;;;;959540;146;27404;-76
2022/06/10 04:36:52;;;;;;;6.17;4.43;;;13.80;99.40;;;;;;960230;147;27310;-77
2022/06/10 04:39:18;;;;;;;4.87;4.47;;;13.90;99.30;;;;;;960215;146;27295;-77
2022/06/10 04:41:45;;;;;;;6.40;5.17;;;14.00;99.80;;;;;;960253;147;27345;-76
2022/06/10 04:44:12;;;;;;;5.33;4.83;;;14.10;99.90;;;;;;959675;146;27354;-76
2022/06/10 04:46:38;;;;;;;4.83;4.43;;;14.20;99.90;;;;;;960068;149;27267;-76
2022/06/10 04:49:05;;;;;;;5.23;4.80;;;14.40;99.90;;;;;;959917;146;27394;-76
2022/06/10 04:51:31;;;;;;;4.90;4.57;;;14.60;99.90;;;;;;959653;149;27297;-77
2022/06/10 04:53:58;;;;;;;4.47;4.10;;;14.90;99.90;;;;;;960519;146;27429;-77
2022/06/10 04:56:25;;;;;;;4.37;3.77;;;15.20;99.90;;;;;;959688;146;27402;-76
2022/06/10 04:58:51;;;;;;;4.80;3.83;;;15.60;99.90;;;;;;959492;149;27721;-77
2022/06/10 05:01:18;;;;;;;4.00;3.70;;;16.20;99.90;;;;;;959974;146;27342;-77
2022/06/10 05:03:44;;;;;;;4.17;3.75;;;16.80;99.90;;;;;;959460;149;28050;-77
2022/06/10 05:06:11;;;;;;;3.75;3.37;;;17.50;99.90;;;;;;959736;146;27279;-77
2022/06/10 05:08:38;;;;;;;3.47;3.20;;;18.20;99.90;;;;;;959883;146;28816;-77
2022/06/10 05:11:04;;;;;;;4.30;3.20;;;18.90;99.90;;;;;;960040;146;27434;-77
2022/06/10 05:13:31;;;;;;;3.42;3.20;;;19.60;99.90;;;;;;958907;147;27348;-77
2022/06/10 05:15:58;;;;;;;3.12;2.92;;;20.30;99.90;;;;;;960045;146;27419;-77
2022/06/10 05:18:24;;;;;;;3.30;3.00;;;21.00;99.90;;;;;;957305;149;27443;-77
2022/06/10 05:20:51;;;;;;;3.47;3.00;;;21.80;98.40;;;;;;948829;148;27351;-77
2022/06/10 05:23:17;;;;;;;4.03;3.00;;;22.50;96.00;;;;;;945245;149;27336;-78
2022/06/10 05:25:44;;;;;;;5.90;2.55;;;23.20;94.50;;;;;;968972;145;27310;-77
2022/06/10 05:28:10;;;;;;;2.67;2.47;;;23.80;93.10;;;;;;946046;148;27319;-78
2022/06/10 05:30:37;;;;;;;2.95;2.55;;;24.50;91.40;;;;;;945951;150;27276;-78
2022/06/10 05:33:03;;;;;;;2.72;2.52;;;25.20;89.90;;;;;;946001;148;27497;-78
2022/06/10 05:35:30;;;;;;;2.75;2.52;;;25.90;85.70;;;;;;945713;151;27342;-78
2022/06/10 05:37:57;;;;;;;2.50;2.30;;;26.50;81.80;;;;;;945905;151;27387;-78
2022/06/10 05:40:23;;;;;;;2.47;2.27;;;27.20;78.60;;;;;;945813;149;27462;-78
2022/06/10 05:42:50;;;;;;;4.12;3.05;;;27.70;75.80;;;;;;945661;148;27288;-76
2022/06/10 05:45:17;;;;;;;3.50;2.50;;;28.20;73.60;;;;;;946616;149;27384;-76
2022/06/10 05:47:43;;;;;;;3.77;2.40;;;28.60;71.90;;;;;;969371;145;27345;-76
2022/06/10 05:50:12;;;;;;;2.52;2.33;;;29.10;69.90;;;;;;945611;148;27305;-76
2022/06/10 05:52:40;;;;;;;4.37;2.20;;;29.60;68.50;;;;;;944690;151;27412;-76
2022/06/10 05:55:06;;;;;;;3.00;2.15;;;30.00;66.90;;;;;;945782;148;27308;-76
2022/06/10 05:57:32;;;;;;;2.50;2.30;;;30.50;65.90;;;;;;945022;151;27320;-76
2022/06/10 05:59:59;;;;;;;2.75;2.00;;;31.00;64.60;;;;;;945604;148;27335;-76
2022/06/10 06:02:25;;;;;;;2.30;2.10;;;31.50;63.20;;;;;;946485;149;27793;-76
2022/06/10 06:04:52;;;;;;;2.00;1.80;;;31.90;61.70;;;;;;945466;148;27409;-76
2022/06/10 06:07:21;;;;;;;2.17;1.95;;;32.30;60.30;;;;;;945592;151;27387;-77
2022/06/10 06:09:48;;;;;;;2.27;1.98;;;32.70;59.70;;;;;;945191;148;27496;-76
2022/06/10 06:12:15;;;;;;;1.92;1.72;;;33.10;58.90;;;;;;945753;148;27407;-76
2022/06/10 06:14:41;;;;;;;2.15;1.92;;;33.60;57.80;;;;;;946203;149;27984;-76
2022/06/10 06:17:08;;;;;;;2.40;1.90;;;33.90;56.70;;;;;;945767;148;27316;-76
2022/06/10 06:19:34;;;;;;;1.92;1.82;;;34.30;55.90;;;;;;945119;148;27348;-76
2022/06/10 06:22:01;;;;;;;1.87;1.75;;;34.60;55.00;;;;;;944499;152;27380;-77
2022/06/10 06:24:28;;;;;;;3.20;1.62;;;35.00;54.40;;;;;;944162;148;26271;-77
2022/06/10 06:26:54;;;;;;;2.05;1.85;;;35.30;54.10;;;;;;944578;152;26368;-77
2022/06/10 06:29:21;;;;;;;4.05;2.02;;;35.70;53.50;;;;;;958838;146;26331;-77
2022/06/10 06:31:50;;;;;;;2.17;1.62;;;36.10;52.70;;;;;;959479;146;26215;-77
2022/06/10 06:34:14;;;;;;;2.37;2.17;;;36.50;51.70;;;;;;959141;147;26231;-77
2022/06/10 06:36:42;;;;;;;1.72;1.60;;;36.90;51.00;;;;;;960091;146;26199;-77
2022/06/10 06:39:07;;;;;;;2.20;1.70;;;37.30;50.50;;;;;;959768;149;26796;-77
2022/06/10 06:41:34;;;;;;;2.33;1.90;;;37.60;49.80;;;;;;959832;146;28699;-77
2022/06/10 06:44:04;;;;;;;3.10;1.90;;;38.00;48.90;;;;;;959885;146;27408;-77
2022/06/10 06:46:27;;;;;;;2.08;1.70;;;38.40;48.10;;;;;;959764;146;26200;-77
2022/06/10 06:48:54;;;;;;;2.15;1.70;;;38.70;47.50;;;;;;960027;146;26803;-78
2022/06/10 06:51:20;;;;;;;1.90;1.80;;;39.00;47.00;;;;;;960495;146;26359;-78
2022/06/10 06:53:47;;;;;;;2.02;1.92;;;39.20;46.30;;;;;;959382;146;26247;-78
2022/06/10 06:56:14;;;;;;;3.10;1.90;;;39.50;45.40;;;;;;958986;147;26220;-78
2022/06/10 06:58:40;;;;;;;1.87;1.75;;;39.70;45.10;;;;;;959160;146;26231;-78
2022/06/10 07:01:06;;;;;;;1.95;1.77;;;40.00;44.70;;;;;;959263;149;26247;-78
2022/06/10 07:03:33;;;;;;;3.35;1.95;;;40.30;44.20;;;;;;959969;149;26251;-78
2022/06/10 07:06:00;;;;;;;1.82;1.62;;;40.60;43.40;;;;;;960428;146;26316;-78
2022/06/10 07:08:31;;;;;;;1.82;1.72;;;40.80;42.90;;;;;;960973;146;26287;-78
2022/06/10 07:10:53;;;;;;;3.12;1.50;;;41.10;42.30;;;;;;959540;146;26212;-78
2022/06/10 07:13:19;;;;;;;2.22;1.67;;;41.30;41.90;;;;;;959624;149;26180;-78
2022/06/10 07:15:46;;;;;;;2.70;1.90;;;41.60;41.50;;;;;;960166;146;26200;-78
2022/06/10 07:18:13;;;;;;;1.90;1.70;;;41.90;40.90;;;;;;959867;149;26246;-78
2022/06/10 07:20:39;;;;;;;1.70;1.60;;;42.10;40.30;;;;;;953596;146;26367;-78
2022/06/10 07:23:06;;;;;;;3.87;1.85;;;42.40;40.00;;;;;;953681;147;26218;-78
2022/06/10 07:25:32;;;;;;;1.77;1.67;;;42.60;39.40;;;;;;954073;147;26341;-78
2022/06/10 07:27:59;;;;;;;1.98;1.75;;;42.80;38.90;;;;;;945978;148;26234;-78
2022/06/10 07:30:25;;;;;;;2.05;1.67;;;43.00;38.20;;;;;;969305;145;26345;-78
2022/06/10 07:32:52;;;;;;;1.57;1.47;;;43.20;37.90;;;;;;946042;148;26336;-78
2022/06/10 07:35:20;;;;;;;1.77;1.60;;;43.40;37.10;;;;;;945224;148;27858;-78
2022/06/10 07:37:45;;;;;;;2.50;1.85;;;43.50;36.60;;;;;;945857;149;26276;-78
2022/06/10 07:41:56;;;;;;;1.82;1.72;;;43.60;36.50;;;;;;945134;148;26319;-78
2022/06/10 07:42:39;;;;;;;2.95;1.72;;;43.80;36.30;;;;;;943199;148;26232;-78
2022/06/10 07:45:05;;;;;;;1.50;1.40;;;43.80;35.90;;;;;;945484;151;26741;-78
2022/06/10 07:47:32;;;;;;;1.50;1.37;;;44.00;35.70;;;;;;968909;148;26253;-79
2022/06/10 07:49:58;;;;;;;1.57;1.47;;;44.30;35.60;;;;;;945720;148;26223;-78
2022/06/10 07:52:25;;;;;;;1.60;1.40;;;44.50;35.10;;;;;;946100;151;26316;-78
2022/06/10 07:54:51;;;;;;;1.77;1.67;;;44.70;34.80;;;;;;945362;148;26235;-79
2022/06/10 07:57:18;;;;;;;2.72;1.60;;;45.00;34.40;;;;;;946423;148;26670;-79
2022/06/10 07:59:45;;;;;;;1.30;1.20;;;45.20;33.90;;;;;;946615;149;26281;-78
2022/06/10 08:02:11;;;;;;;1.90;1.50;;;45.50;33.30;;;;;;945772;148;26250;-79
2022/06/10 08:04:38;;;;;;;1.67;1.30;;;45.60;32.60;;;;;;946378;148;26236;-79
2022/06/10 08:07:04;;;;;;;2.08;1.30;;;45.70;32.50;;;;;;945794;148;26219;-79
2022/06/10 08:09:31;;;;;;;1.45;1.30;;;45.70;32.20;;;;;;946487;148;26291;-79
2022/06/10 08:11:58;;;;;;;1.67;1.37;;;45.90;32.20;;;;;;945979;148;26362;-79
2022/06/10 08:14:25;;;;;;;1.80;1.60;;;46.00;31.90;;;;;;945559;149;26224;-79
2022/06/10 08:16:53;;;;;;;1.65;1.20;;;46.20;31.20;;;;;;945750;149;26187;-78
2022/06/10 08:19:17;;;;;;;2.05;1.50;;;46.20;30.40;;;;;;944952;149;26216;-78
2022/06/10 08:24:29;;;;;;;0.85;0.82;;;46.20;30.00;;;;;;959377;149;26220;-79
2022/06/10 08:26:55;;;;;;;1.40;0.95;;;46.10;30.00;;;;;;959932;149;26251;-79
2022/06/10 08:29:22;;;;;;;1.75;1.02;;;46.10;29.90;;;;;;959108;149;26343;-78
2022/06/10 08:31:49;;;;;;;1.65;1.30;;;46.10;29.70;;;;;;959644;149;26220;-78
2022/06/10 08:34:15;;;;;;;0.90;0.90;;;46.10;29.60;;;;;;959052;147;26262;-79
2022/06/10 08:36:42;;;;;;;2.17;1.25;;;46.20;29.60;;;;;;958851;149;26597;-79
2022/06/10 08:39:08;;;;;;;2.27;1.30;;;46.20;29.40;;;;;;959759;149;26262;-79
2022/06/10 08:41:56;;;;;;;1.90;1.30;;;46.20;29.20;;;;;;961080;146;26659;-79
2022/06/10 08:44:26;;;;;;;1.75;1.32;;;46.40;29.10;;;;;;959777;149;27924;-79
2022/06/10 08:47:01;;;;;;;2.92;1.60;;;46.50;29.00;;;;;;959352;149;26300;-79
2022/06/10 08:49:47;;;;;;;1.82;1.30;;;46.60;28.70;;;;;;959925;149;26192;-79
2022/06/10 08:52:22;;;;;;;1.45;1.30;;;46.70;28.40;;;;;;957813;147;26239;-79
2022/06/10 08:55:10;;;;;;;1.65;1.10;;;46.80;28.30;;;;;;959521;149;26315;-79
2022/06/10 08:57:37;;;;;;;2.02;1.10;;;46.80;28.30;;;;;;955243;149;26324;-79
2022/06/10 09:00:04;;;;;;;2.20;1.10;;;46.80;28.10;;;;;;958860;149;26355;-79
2022/06/10 09:02:37;;;;;;;1.52;1.10;;;46.80;27.70;;;;;;955999;149;26234;-79
2022/06/10 09:05:18;;;;;;;1.50;1.27;;;46.80;27.70;;;;;;958397;149;26239;-79
2022/06/10 09:07:47;;;;;;;2.08;1.17;;;46.70;27.50;;;;;;959965;147;26302;-79
2022/06/10 09:10:22;;;;;;;2.87;1.30;;;46.70;27.50;;;;;;960120;146;26239;-79
2022/06/10 09:13:10;;;;;;;1.50;1.12;;;46.60;27.50;;;;;;928663;149;26262;-79
2022/06/10 09:15:43;;;;;;;1.35;1.25;;;46.50;27.40;;;;;;959746;147;26270;-78
2022/06/10 09:18:09;;;;;;;2.35;1.40;;;46.50;27.50;;;;;;945099;147;26218;-79
2022/06/10 09:20:46;;;;;;;2.17;1.50;;;46.40;27.30;;;;;;958533;149;26267;-79
2022/06/10 09:23:14;;;;;;;1.40;1.20;;;46.40;27.10;;;;;;954894;146;26633;-79
2022/06/10 09:25:43;;;;;;;1.77;1.27;;;46.40;27.10;;;;;;965638;146;26346;-79
2022/06/10 09:28:10;;;;;;;1.82;1.00;;;46.40;27.10;;;;;;965475;148;26222;-79
2022/06/10 09:30:48;;;;;;;1.10;1.00;;;46.40;27.10;;;;;;965836;145;26318;-79
2022/06/10 09:33:27;;;;;;;1.95;1.20;;;46.40;27.00;;;;;;965415;148;26244;-79
2022/06/10 09:36:02;;;;;;;1.70;0.95;;;46.30;26.50;;;;;;965065;148;26257;-79
2022/06/10 09:38:41;;;;;;;1.80;1.00;;;46.20;26.60;;;;;;965138;146;26233;-79
2022/06/10 09:41:19;;;;;;;1.05;0.80;;;46.00;26.40;;;;;;965012;146;26237;-79
2022/06/10 09:44:08;;;;;;;1.32;0.80;;;45.90;26.50;;;;;;964941;148;26235;-79
2022/06/10 09:46:58;;;;;;;0.98;0.70;;;45.80;26.30;;;;;;964833;148;26253;-79
2022/06/10 09:49:37;;;;;;;1.40;0.90;;;45.70;26.60;;;;;;963652;147;26308;-79
2022/06/10 09:52:11;;;;;;;1.87;1.00;;;45.50;26.30;;;;;;964765;146;26318;-79
2022/06/10 09:54:57;;;;;;;1.70;0.80;;;45.40;26.30;;;;;;964296;148;26311;-79
2022/06/10 09:57:26;;;;;;;3.70;1.00;;;45.20;26.00;;;;;;964716;146;26195;-78
2022/06/10 09:59:56;;;;;;;0.90;0.75;;;44.90;25.90;;;;;;963329;146;26230;-79
2022/06/10 10:02:43;;;;;;;1.80;0.78;;;44.50;26.00;;;;;;964456;146;26349;-79
2022/06/10 10:05:25;;;;;;;2.22;0.72;;;44.00;25.90;;;;;;965453;146;26319;-78
2022/06/10 10:07:51;;;;;;;3.58;1.12;;;43.60;26.00;;;;;;964692;146;26334;-79
2022/06/10 10:10:37;;;;;;;2.92;0.95;;;43.20;26.10;;;;;;965885;145;26214;-79
2022/06/10 10:13:34;;;;;;;1.55;0.80;;;42.80;26.70;;;;;;965336;148;26230;-79
2022/06/10 10:16:18;;;;;;;1.00;0.68;;;42.40;25.90;;;;;;965901;146;26243;-78
2022/06/10 10:18:57;;;;;;;1.87;1.25;;;41.90;26.40;;;;;;964379;146;27391;-79
2022/06/10 10:21:29;;;;;;;1.30;0.82;;;41.40;26.30;;;;;;963973;146;26248;-78
2022/06/10 10:23:57;;;;;;;1.55;0.65;;;40.90;26.50;;;;;;954384;147;26254;-78
2022/06/10 10:26:25;;;;;;;2.12;1.30;;;40.20;26.50;;;;;;954245;147;27341;-78
2022/06/10 10:28:52;;;;;;;2.45;1.00;;;39.60;26.80;;;;;;953999;147;27401;-78
2022/06/10 10:31:21;;;;;;;1.45;0.95;;;38.90;27.00;;;;;;952687;147;27334;-78
2022/06/10 10:33:48;;;;;;;3.08;1.07;;;38.20;27.30;;;;;;953902;147;27358;-77
2022/06/10 10:36:20;;;;;;;2.55;0.88;;;37.60;27.60;;;;;;953572;147;27447;-77
2022/06/10 10:38:47;;;;;;;1.62;0.90;;;37.00;27.60;;;;;;953472;147;27419;-77
2022/06/10 10:41:22;;;;;;;1.07;0.95;;;36.40;27.90;;;;;;954013;147;27347;-78
2022/06/10 10:43:49;;;;;;;2.20;0.93;;;35.90;28.40;;;;;;954101;147;27338;-78
2022/06/10 10:46:27;;;;;;;2.15;0.60;;;35.40;28.50;;;;;;954361;148;27338;-78
2022/06/10 10:48:57;;;;;;;1.62;1.00;;;35.00;28.60;;;;;;952813;147;27318;-78
2022/06/10 10:51:21;;;;;;;0.82;0.68;;;34.60;28.70;;;;;;954155;147;27249;-77
2022/06/10 10:53:54;;;;;;;1.82;0.82;;;34.30;29.00;;;;;;954207;147;27310;-78
2022/06/10 10:56:20;;;;;;;0.90;0.90;;;34.10;29.40;;;;;;953568;147;27430;-78
2022/06/10 10:58:46;;;;;;;2.00;1.07;;;33.90;29.40;;;;;;952076;147;27326;-78
2022/06/10 11:01:58;;;;;;;1.17;0.85;;;33.80;29.50;;;;;;952662;147;27434;-78
2022/06/10 11:03:46;;;;;;;0.78;0.78;;;33.60;29.60;;;;;;944694;147;27415;-78
2022/06/10 11:06:27;;;;;;;1.65;0.93;;;33.40;29.90;;;;;;953945;147;27411;-77
2022/06/10 11:09:03;;;;;;;1.42;0.90;;;33.30;30.20;;;;;;954113;147;27361;-79
2022/06/10 11:11:32;;;;;;;1.07;0.80;;;33.10;30.40;;;;;;952337;147;27425;-78
2022/06/10 11:14:04;;;;;;;2.95;1.25;;;33.00;30.60;;;;;;954093;148;27365;-78
2022/06/10 11:16:43;;;;;;;1.30;1.00;;;32.80;30.50;;;;;;953354;147;27455;-78
2022/06/10 11:19:15;;;;;;;2.70;0.80;;;32.60;30.40;;;;;;953680;147;27298;-78
2022/06/10 11:21:51;;;;;;;1.42;0.80;;;32.40;30.50;;;;;;953958;147;27317;-77
2022/06/10 11:24:17;;;;;;;0.70;0.70;;;32.30;30.50;;;;;;962993;146;27260;-79
2022/06/10 11:26:49;;;;;;;2.92;1.30;;;32.10;30.70;;;;;;944739;148;27341;-78
2022/06/10 11:29:16;;;;;;;2.00;1.25;;;32.00;31.20;;;;;;944304;151;27308;-79
2022/06/10 11:31:48;;;;;;;2.08;0.90;;;31.80;31.20;;;;;;943984;149;27420;-78
2022/06/10 11:34:33;;;;;;;1.45;1.05;;;31.80;31.50;;;;;;944152;148;27331;-79
2022/06/10 11:36:59;;;;;;;3.15;1.00;;;31.70;31.90;;;;;;959426;146;27860;-79
2022/06/10 11:39:33;;;;;;;1.35;0.90;;;31.60;31.70;;;;;;959207;146;27820;-79
2022/06/10 11:42:13;;;;;;;1.42;0.65;;;31.60;31.80;;;;;;959935;147;27347;-78
2022/06/10 11:44:31;;;;;;;2.47;0.98;;;31.60;32.10;;;;;;955837;146;27450;-79
2022/06/10 11:47:03;;;;;;;1.42;0.80;;;31.60;32.70;;;;;;959573;147;27416;-79
2022/06/10 11:49:48;;;;;;;1.62;0.70;;;31.60;32.00;;;;;;957970;146;27326;-79
2022/06/10 11:52:24;;;;;;;0.70;0.70;;;31.50;32.00;;;;;;958901;149;27252;-79
2022/06/10 11:54:56;;;;;;;2.05;0.90;;;31.60;32.20;;;;;;958177;149;27435;-78
2022/06/10 12:00:25;;;;;;;1.22;0.82;;;31.50;31.80;;;;;;959780;149;27372;-78
2022/06/10 12:03:06;;;;;;;1.55;0.82;;;31.50;31.60;;;;;;956067;149;27398;-78
2022/06/10 12:05:45;;;;;;;1.05;0.60;;;31.40;31.60;;;;;;958742;149;27302;-78
2022/06/10 12:08:30;;;;;;;1.65;1.00;;;31.30;31.70;;;;;;959020;147;27378;-78
2022/06/10 12:11:02;;;;;;;0.82;0.82;;;31.20;31.90;;;;;;959664;146;27307;-78
2022/06/10 12:13:29;;;;;;;1.45;0.75;;;31.20;32.00;;;;;;959913;147;27895;-78
2022/06/10 12:15:55;;;;;;;1.10;0.68;;;31.10;32.40;;;;;;960367;147;27252;-79
2022/06/10 12:18:21;;;;;;;1.50;0.70;;;31.10;32.30;;;;;;960094;149;27331;-79
2022/06/10 12:20:48;;;;;;;1.45;0.75;;;31.10;32.10;;;;;;959453;149;27355;-78
2022/06/10 12:23:24;;;;;;;1.45;0.90;;;31.00;32.00;;;;;;954579;149;27363;-79
2022/06/10 12:26:08;;;;;;;1.42;0.80;;;31.00;32.00;;;;;;953820;149;27377;-79
2022/06/10 12:28:47;;;;;;;1.47;0.80;;;30.90;32.30;;;;;;945077;151;27364;-78
2022/06/10 12:31:41;;;;;;;2.35;0.82;;;30.80;32.30;;;;;;968461;145;27349;-78
2022/06/10 12:34:09;;;;;;;0.98;0.68;;;30.80;32.30;;;;;;945610;149;27359;-79
2022/06/10 12:36:34;;;;;;;1.37;0.88;;;30.80;32.40;;;;;;933621;151;27428;-78
2022/06/10 12:39:01;;;;;;;2.27;0.62;;;30.70;32.40;;;;;;945146;151;27337;-78
2022/06/10 12:41:42;;;;;;;0.68;0.68;;;30.70;32.50;;;;;;945356;150;27280;-78
2022/06/10 12:44:11;;;;;;;1.42;0.88;;;30.70;32.80;;;;;;944889;151;27310;-79
2022/06/10 12:46:41;;;;;;;1.27;0.70;;;30.70;32.60;;;;;;944946;151;27359;-78
2022/06/10 12:49:20;;;;;;;1.25;0.80;;;30.70;32.80;;;;;;945573;149;27304;-79
2022/06/10 12:51:50;;;;;;;1.50;0.80;;;30.70;33.60;;;;;;944898;151;27712;-79
2022/06/10 12:54:24;;;;;;;1.10;0.90;;;30.70;33.10;;;;;;943441;151;27391;-78
2022/06/10 12:56:51;;;;;;;0.70;0.70;;;30.70;33.20;;;;;;945597;151;27334;-79
2022/06/10 12:59:20;;;;;;;0.90;0.72;;;30.70;32.90;;;;;;944749;149;27332;-78
2022/06/10 13:01:44;;;;;;;1.10;0.70;;;30.70;33.20;;;;;;945639;151;27809;-78
2022/06/10 13:04:23;;;;;;;2.75;1.35;;;30.70;32.90;;;;;;945408;151;27388;-78
2022/06/10 13:06:58;;;;;;;1.00;1.00;;;30.70;32.80;;;;;;946356;149;27312;-79
2022/06/10 13:09:27;;;;;;;1.45;0.80;;;30.80;32.90;;;;;;946188;148;27394;-78
2022/06/10 13:12:09;;;;;;;2.00;0.90;;;30.90;33.00;;;;;;945754;149;27308;-78
2022/06/10 13:14:38;;;;;;;0.98;0.78;;;30.90;32.60;;;;;;945653;149;27319;-79
2022/06/10 13:17:07;;;;;;;2.47;0.90;;;30.90;32.50;;;;;;945385;151;27358;-79